Time;durP1;ratioP1;P1;durP2;ratioP2;P2;SDS_P1;SDS_P2;PMS_P1;PMS_P2;Temp;Humidity;BMP_temperature;BMP_pressure;BME280_temperature;BME280_humidity;BME280_pressure;Samples;Min_cycle;Max_cycle;Signal;HPM_P1;HPM_P2
2023/03/09 00:00:27;;;;;;;;;;;23.70;85.70;;;;;;1723598;83;20247;-81
2023/03/09 00:02:57;;;;;;;;;;;23.70;85.70;;;;;;1722004;83;20187;-80
2023/03/09 00:05:28;;;;;;;;;;;23.70;85.40;;;;;;1722194;83;20190;-81
2023/03/09 00:08:10;;;;;;;;;;;23.70;85.00;;;;;;1721315;83;20247;-83
2023/03/09 00:10:41;;;;;;;;;;;23.70;85.10;;;;;;1724010;82;20275;-81
2023/03/09 00:13:18;;;;;;;;;;;23.80;85.00;;;;;;1724017;83;20191;-82
2023/03/09 00:15:49;;;;;;;;;;;23.70;84.60;;;;;;1722913;83;20272;-81
2023/03/09 00:18:16;;;;;;;;;;;23.80;83.70;;;;;;1721855;83;20199;-81
2023/03/09 00:20:46;;;;;;;;;;;23.80;83.70;;;;;;1723966;83;20238;-82
2023/03/09 00:23:19;;;;;;;;;;;23.80;83.80;;;;;;1734913;82;20255;-80
2023/03/09 00:25:47;;;;;;;;;;;23.80;83.90;;;;;;1735138;83;20209;-82
2023/03/09 00:28:17;;;;;;;;;;;23.80;83.50;;;;;;1734027;81;20210;-82
2023/03/09 00:30:47;;;;;;;;;;;23.80;83.40;;;;;;1734063;82;20855;-81
2023/03/09 00:33:19;;;;;;;;;;;23.90;83.30;;;;;;1735232;82;20194;-82
2023/03/09 00:35:50;;;;;;;;;;;23.90;82.90;;;;;;1737907;83;20131;-80
2023/03/09 00:38:20;;;;;;;;;;;23.90;82.80;;;;;;1738616;83;20139;-80
2023/03/09 00:40:52;;;;;;;;;;;23.90;82.00;;;;;;1735502;83;20191;-82
2023/03/09 00:43:22;;;;;;;;;;;23.90;82.00;;;;;;1734692;82;20250;-81
2023/03/09 00:45:52;;;;;;;;;;;23.90;81.80;;;;;;1734309;81;20567;-81
2023/03/09 00:48:22;;;;;;;;;;;23.90;81.80;;;;;;1731603;82;20246;-82
2023/03/09 00:50:54;;;;;;;;;;;24.00;81.40;;;;;;1722547;83;20179;-81
2023/03/09 00:53:24;;;;;;;;;;;24.00;81.10;;;;;;1734611;83;20202;-81
2023/03/09 00:55:54;;;;;;;;;;;24.00;81.20;;;;;;1735279;83;20220;-82
2023/03/09 00:58:24;;;;;;;;;;;24.00;80.60;;;;;;1734708;82;20611;-73
2023/03/09 01:00:54;;;;;;;;;;;24.10;80.40;;;;;;1732970;81;20698;-71
2023/03/09 01:03:24;;;;;;;;;;;24.10;80.50;;;;;;1734123;81;20264;-70
2023/03/09 01:05:55;;;;;;;;;;;24.20;80.20;;;;;;1730538;81;20230;-70
2023/03/09 01:08:25;;;;;;;;;;;24.10;80.10;;;;;;1729943;81;20678;-75
2023/03/09 01:14:17;;;;;;;;;;;24.20;79.80;;;;;;1730461;81;20250;-71
2023/03/09 01:16:48;;;;;;;;;;;24.30;79.40;;;;;;1734451;81;20341;-69
2023/03/09 01:19:18;;;;;;;;;;;24.40;78.80;;;;;;1732877;81;20270;-72
2023/03/09 01:21:48;;;;;;;;;;;24.40;78.80;;;;;;1741052;81;20216;-72
2023/03/09 01:24:18;;;;;;;;;;;24.40;78.70;;;;;;1723744;81;20243;-69
2023/03/09 01:26:48;;;;;;;;;;;24.40;78.30;;;;;;1725335;81;20242;-70
2023/03/09 01:29:18;;;;;;;;;;;24.40;78.50;;;;;;1722271;82;20266;-73
2023/03/09 01:31:48;;;;;;;;;;;24.50;78.20;;;;;;1727238;82;20236;-69
2023/03/09 01:34:18;;;;;;;;;;;24.50;78.10;;;;;;1723373;81;20183;-73
2023/03/09 01:36:53;;;;;;;;;;;24.60;78.10;;;;;;1720709;81;20310;-72
2023/03/09 01:39:19;;;;;;;;;;;24.60;77.60;;;;;;1725119;81;20318;-72
2023/03/09 01:41:53;;;;;;;;;;;24.60;77.50;;;;;;1725029;81;20629;-72
2023/03/09 01:44:25;;;;;;;;;;;24.70;76.80;;;;;;1711969;83;20235;-72
2023/03/09 01:46:56;;;;;;;;;;;24.80;76.80;;;;;;1687922;83;20321;-72
2023/03/09 01:49:36;;;;;;;;;;;24.80;76.90;;;;;;1713799;83;20251;-71
2023/03/09 01:52:08;;;;;;;;;;;24.80;76.70;;;;;;1723461;81;20339;-72
2023/03/09 01:54:42;;;;;;;;;;;25.00;76.40;;;;;;1726558;83;20186;-71
2023/03/09 01:57:19;;;;;;;;;;;25.00;76.20;;;;;;1724878;81;20292;-71
2023/03/09 01:59:51;;;;;;;;;;;25.00;76.90;;;;;;1722017;81;20203;-72
2023/03/09 02:02:22;;;;;;;;;;;25.10;75.60;;;;;;1723932;82;20285;-71
2023/03/09 02:04:54;;;;;;;;;;;25.20;75.10;;;;;;1712283;81;20175;-72
2023/03/09 02:07:25;;;;;;;;;;;25.20;74.70;;;;;;1722665;81;20246;-72
2023/03/09 02:09:58;;;;;;;;;;;25.30;74.00;;;;;;1717018;81;20345;-70
2023/03/09 02:12:29;;;;;;;;;;;25.30;74.20;;;;;;1721072;81;20203;-73
2023/03/09 02:15:01;;;;;;;;;;;25.30;74.00;;;;;;1713390;81;20259;-73
2023/03/09 02:17:33;;;;;;;;;;;25.40;73.80;;;;;;1725417;81;20621;-72
2023/03/09 02:20:08;;;;;;;;;;;25.40;73.80;;;;;;1665667;84;20288;-71
2023/03/09 02:22:39;;;;;;;;;;;25.50;73.60;;;;;;1704712;83;20590;-72
2023/03/09 02:25:10;;;;;;;;;;;25.50;73.10;;;;;;1770848;80;20295;-71
2023/03/09 02:27:43;;;;;;;;;;;25.60;73.30;;;;;;1770919;80;20301;-72
2023/03/09 02:30:14;;;;;;;;;;;25.60;73.40;;;;;;1766019;80;20289;-72
2023/03/09 02:32:44;;;;;;;;;;;25.70;73.40;;;;;;1765826;81;20210;-70
2023/03/09 02:35:14;;;;;;;;;;;25.80;72.80;;;;;;1766232;80;20308;-70
2023/03/09 02:37:44;;;;;;;;;;;25.90;72.90;;;;;;1771498;81;20194;-72
2023/03/09 02:40:19;;;;;;;;;;;25.90;72.70;;;;;;1762301;80;20361;-72
2023/03/09 02:42:50;;;;;;;;;;;26.00;72.40;;;;;;1768840;80;20423;-72
2023/03/09 02:45:25;;;;;;;;;;;26.10;72.50;;;;;;1768218;81;20208;-70
2023/03/09 02:47:53;;;;;;;;;;;26.10;72.10;;;;;;1765332;80;20271;-72
2023/03/09 02:50:24;;;;;;;;;;;26.20;72.00;;;;;;1770644;80;20187;-72
2023/03/09 02:52:55;;;;;;;;;;;26.30;70.90;;;;;;1770460;80;20254;-73
2023/03/09 02:55:25;;;;;;;;;;;26.30;71.10;;;;;;1758283;80;20190;-73
2023/03/09 02:57:55;;;;;;;;;;;26.30;71.10;;;;;;1769674;80;20179;-72
2023/03/09 03:00:26;;;;;;;;;;;26.40;71.10;;;;;;1744319;81;20183;-73
2023/03/09 03:02:56;;;;;;;;;;;26.50;71.30;;;;;;1767976;80;20381;-73
2023/03/09 03:05:26;;;;;;;;;;;26.60;71.50;;;;;;1761117;80;20217;-72
2023/03/09 03:07:56;;;;;;;;;;;26.60;71.10;;;;;;1766334;80;20219;-72
2023/03/09 03:10:26;;;;;;;;;;;26.70;71.20;;;;;;1768082;80;20188;-72
2023/03/09 03:12:56;;;;;;;;;;;26.70;71.10;;;;;;1769256;80;20222;-72
2023/03/09 03:15:31;;;;;;;;;;;26.80;70.90;;;;;;1771815;81;20132;-73
2023/03/09 03:18:01;;;;;;;;;;;26.90;70.50;;;;;;1765841;80;20274;-73
2023/03/09 03:20:31;;;;;;;;;;;26.90;69.20;;;;;;1717454;82;20269;-72
2023/03/09 03:23:06;;;;;;;;;;;27.00;69.40;;;;;;1725103;80;20267;-72
2023/03/09 03:25:34;;;;;;;;;;;27.00;69.70;;;;;;1699398;83;20274;-71
2023/03/09 03:28:06;;;;;;;;;;;27.10;68.70;;;;;;1753622;81;20231;-71
2023/03/09 03:30:36;;;;;;;;;;;27.20;67.30;;;;;;1759579;80;20215;-73
2023/03/09 03:33:06;;;;;;;;;;;27.20;67.60;;;;;;1769244;80;20192;-72
2023/03/09 03:35:36;;;;;;;;;;;27.30;67.90;;;;;;1766689;80;20745;-72
2023/03/09 03:38:06;;;;;;;;;;;27.40;67.80;;;;;;1763797;80;20172;-72
2023/03/09 03:40:36;;;;;;;;;;;27.40;67.60;;;;;;1764973;80;20215;-70
2023/03/09 03:43:06;;;;;;;;;;;27.50;67.20;;;;;;1757790;80;20140;-73
2023/03/09 03:45:36;;;;;;;;;;;27.60;66.90;;;;;;1760112;80;20269;-72
2023/03/09 03:48:07;;;;;;;;;;;27.70;67.60;;;;;;1754026;81;20247;-70
2023/03/09 03:50:40;;;;;;;;;;;27.80;66.90;;;;;;1766049;81;20223;-72
2023/03/09 03:53:12;;;;;;;;;;;27.80;66.60;;;;;;1761106;80;20253;-71
2023/03/09 03:55:44;;;;;;;;;;;27.90;67.50;;;;;;1722650;81;20237;-71
2023/03/09 03:58:15;;;;;;;;;;;28.00;65.70;;;;;;1718671;81;20234;-73
2023/03/09 04:00:46;;;;;;;;;;;28.10;65.20;;;;;;1700667;83;20323;-70
2023/03/09 04:03:16;;;;;;;;;;;28.10;65.00;;;;;;1709821;82;20382;-73
2023/03/09 04:05:46;;;;;;;;;;;28.20;66.10;;;;;;1761913;80;20246;-72
2023/03/09 04:08:17;;;;;;;;;;;28.30;63.30;;;;;;1763354;80;20321;-72
2023/03/09 04:10:46;;;;;;;;;;;28.40;64.40;;;;;;1763086;80;20204;-73
2023/03/09 04:13:16;;;;;;;;;;;28.40;63.30;;;;;;1762345;80;20247;-72
2023/03/09 04:15:46;;;;;;;;;;;28.60;65.80;;;;;;1759066;80;20286;-71
2023/03/09 04:18:18;;;;;;;;;;;28.60;63.70;;;;;;1763519;80;20207;-86
2023/03/09 04:21:02;;;;;;;;;;;28.70;62.70;;;;;;1771167;80;20139;-87
2023/03/09 04:23:50;;;;;;;;;;;28.80;64.80;;;;;;1824777;75;20110;-86
2023/03/09 04:26:25;;;;;;;;;;;28.90;62.70;;;;;;1811376;79;20125;-84
2023/03/09 04:28:55;;;;;;;;;;;28.90;61.60;;;;;;1820943;77;20298;-86
2023/03/09 04:31:29;;;;;;;;;;;29.00;61.10;;;;;;1862534;77;20173;-86
2023/03/09 04:34:02;;;;;;;;;;;29.10;62.00;;;;;;1849842;74;20100;-89
2023/03/09 04:39:38;;;;;;;;;;;29.20;60.80;;;;;;1740778;80;20197;-87
2023/03/09 04:45:47;;;;;;;;;;;29.30;60.20;;;;;;1749338;82;20245;-88
2023/03/09 04:51:22;;;;;;;;;;;29.30;60.40;;;;;;1736202;81;20203;-83
2023/03/09 04:54:10;;;;;;;;;;;29.40;60.10;;;;;;1757719;80;20229;-85
2023/03/09 05:00:04;;;;;;;;;;;29.50;60.60;;;;;;1769618;80;20400;-86
2023/03/09 05:02:42;;;;;;;;;;;29.60;59.10;;;;;;1751368;82;20233;-85
2023/03/09 05:05:18;;;;;;;;;;;29.60;58.80;;;;;;1750892;82;20166;-87
2023/03/09 05:07:50;;;;;;;;;;;29.70;59.40;;;;;;1746849;82;20580;-85
2023/03/09 05:10:40;;;;;;;;;;;29.70;59.30;;;;;;1721328;82;20148;-82
2023/03/09 05:13:27;;;;;;;;;;;29.80;59.90;;;;;;1733804;83;20184;-84
2023/03/09 05:19:05;;;;;;;;;;;29.90;58.50;;;;;;1596243;89;20285;-84
2023/03/09 05:21:45;;;;;;;;;;;30.00;58.80;;;;;;1704330;79;20262;-78
2023/03/09 05:24:16;;;;;;;;;;;30.00;58.40;;;;;;1809368;79;20441;-73
2023/03/09 05:26:48;;;;;;;;;;;30.10;58.60;;;;;;1798230;79;20437;-74
2023/03/09 05:29:22;;;;;;;;;;;30.10;58.80;;;;;;1830874;76;20367;-73
2023/03/09 05:32:01;;;;;;;;;;;30.10;58.20;;;;;;1836522;77;20210;-75
2023/03/09 05:35:13;;;;;;;;;;;30.20;59.20;;;;;;1880765;75;20581;-73
2023/03/09 05:37:45;;;;;;;;;;;30.20;58.60;;;;;;1838614;76;20170;-73
2023/03/09 05:40:22;;;;;;;;;;;30.30;57.50;;;;;;1870611;76;20177;-75
2023/03/09 05:42:57;;;;;;;;;;;30.40;57.60;;;;;;1870520;76;20297;-75
2023/03/09 05:45:28;;;;;;;;;;;30.30;57.40;;;;;;1869011;76;20194;-71
2023/03/09 05:48:06;;;;;;;;;;;30.30;59.80;;;;;;1872931;76;20239;-71
2023/03/09 05:50:41;;;;;;;;;;;30.30;58.40;;;;;;1865031;75;20540;-73
2023/03/09 05:53:15;;;;;;;;;;;30.30;58.00;;;;;;1869752;75;20237;-73
2023/03/09 05:55:47;;;;;;;;;;;30.40;58.60;;;;;;1870446;75;20204;-75
2023/03/09 05:58:20;;;;;;;;;;;30.40;59.70;;;;;;1848361;77;20179;-73
2023/03/09 06:00:56;;;;;;;;;;;30.40;58.90;;;;;;1829169;76;20214;-73
2023/03/09 06:03:26;;;;;;;;;;;30.30;61.50;;;;;;1838774;78;20171;-72
2023/03/09 06:06:00;;;;;;;;;;;30.30;60.00;;;;;;1840596;76;20182;-74
2023/03/09 06:08:30;;;;;;;;;;;30.30;58.50;;;;;;1843002;78;20778;-73
2023/03/09 06:11:03;;;;;;;;;;;30.40;58.30;;;;;;1846192;76;20667;-73
2023/03/09 06:13:34;;;;;;;;;;;30.40;58.10;;;;;;1871709;75;20210;-72
2023/03/09 06:16:08;;;;;;;;;;;30.50;58.00;;;;;;1873807;75;20228;-71
2023/03/09 06:18:44;;;;;;;;;;;30.50;58.80;;;;;;1866368;76;20178;-72
2023/03/09 06:21:14;;;;;;;;;;;30.50;58.80;;;;;;1870474;75;20241;-72
2023/03/09 06:23:44;;;;;;;;;;;30.50;58.20;;;;;;1875919;75;20162;-71
2023/03/09 06:26:15;;;;;;;;;;;30.60;57.80;;;;;;1871956;76;20257;-73
2023/03/09 06:28:49;;;;;;;;;;;30.60;59.00;;;;;;1848015;76;20185;-73
2023/03/09 06:31:19;;;;;;;;;;;30.70;58.50;;;;;;1860320;76;20464;-70
2023/03/09 06:33:50;;;;;;;;;;;30.60;58.60;;;;;;1870428;76;20291;-72
2023/03/09 06:36:24;;;;;;;;;;;30.70;57.60;;;;;;1857780;76;20245;-74
2023/03/09 06:38:54;;;;;;;;;;;30.70;58.50;;;;;;1874973;75;20208;-71
2023/03/09 06:41:32;;;;;;;;;;;30.70;58.40;;;;;;1871005;75;20178;-72
2023/03/09 06:44:05;;;;;;;;;;;30.70;57.50;;;;;;1871510;75;20176;-73
2023/03/09 06:46:38;;;;;;;;;;;30.70;57.60;;;;;;1871473;75;20205;-72
2023/03/09 06:49:10;;;;;;;;;;;30.60;58.40;;;;;;1871775;75;20177;-72
2023/03/09 06:51:44;;;;;;;;;;;30.70;58.20;;;;;;1871242;75;20295;-73
2023/03/09 06:54:15;;;;;;;;;;;30.70;58.60;;;;;;1876149;75;20552;-72
2023/03/09 06:56:46;;;;;;;;;;;30.70;57.80;;;;;;1857577;76;20190;-72
2023/03/09 06:59:19;;;;;;;;;;;30.70;57.80;;;;;;1890498;75;20300;-73
2023/03/09 07:01:54;;;;;;;;;;;30.70;57.90;;;;;;1869984;75;20199;-73
2023/03/09 07:04:21;;;;;;;;;;;30.60;58.10;;;;;;1882265;75;20325;-70
2023/03/09 07:06:51;;;;;;;;;;;30.60;58.50;;;;;;1843116;77;20178;-72
2023/03/09 07:09:32;;;;;;;;;;;30.60;58.80;;;;;;1879346;75;20459;-71
2023/03/09 07:11:59;;;;;;;;;;;30.70;59.30;;;;;;1870974;75;20158;-72
2023/03/09 07:14:29;;;;;;;;;;;30.70;58.80;;;;;;1882580;75;20174;-72
2023/03/09 07:16:59;;;;;;;;;;;30.70;59.60;;;;;;1873649;75;20181;-72
2023/03/09 07:19:30;;;;;;;;;;;30.80;58.00;;;;;;1866040;75;20198;-72
2023/03/09 07:24:59;;;;;;;;;;;30.80;58.00;;;;;;1809253;78;20539;-72
2023/03/09 07:27:30;;;;;;;;;;;30.80;57.70;;;;;;1811424;78;20589;-71
2023/03/09 07:30:02;;;;;;;;;;;30.80;58.90;;;;;;1805774;78;20165;-72
2023/03/09 07:32:32;;;;;;;;;;;30.80;58.40;;;;;;1819265;78;20171;-73
2023/03/09 07:35:02;;;;;;;;;;;30.70;59.20;;;;;;1811665;78;20487;-74
2023/03/09 07:37:32;;;;;;;;;;;30.70;58.50;;;;;;1808978;78;20212;-73
2023/03/09 07:40:07;;;;;;;;;;;30.70;58.30;;;;;;1807637;78;20205;-71
2023/03/09 07:42:34;;;;;;;;;;;30.70;59.10;;;;;;1808135;78;20232;-72
2023/03/09 07:45:15;;;;;;;;;;;30.70;58.90;;;;;;1804231;78;20575;-73
2023/03/09 07:47:39;;;;;;;;;;;30.80;58.40;;;;;;1803568;78;20300;-73
2023/03/09 07:50:10;;;;;;;;;;;30.80;58.10;;;;;;1806805;78;20169;-73
2023/03/09 07:52:40;;;;;;;;;;;30.80;58.30;;;;;;1807812;79;20172;-73
2023/03/09 07:55:11;;;;;;;;;;;30.80;58.10;;;;;;1794832;79;20236;-72
2023/03/09 07:57:41;;;;;;;;;;;30.80;59.00;;;;;;1794895;78;20221;-73
2023/03/09 08:00:20;;;;;;;;;;;30.80;58.70;;;;;;1844556;76;20495;-71
2023/03/09 08:02:48;;;;;;;;;;;30.80;59.30;;;;;;1848212;76;20209;-73
2023/03/09 08:05:19;;;;;;;;;;;30.80;58.50;;;;;;1844407;76;20356;-70
2023/03/09 08:07:52;;;;;;;;;;;30.70;59.10;;;;;;1847311;76;20495;-72
2023/03/09 08:10:23;;;;;;;;;;;30.70;58.40;;;;;;1847763;76;20429;-73
2023/03/09 08:12:53;;;;;;;;;;;30.60;58.80;;;;;;1844684;76;20216;-71
2023/03/09 08:15:23;;;;;;;;;;;30.60;59.30;;;;;;1854971;76;20225;-72
2023/03/09 08:17:53;;;;;;;;;;;30.50;59.20;;;;;;1845326;76;20249;-72
2023/03/09 08:20:24;;;;;;;;;;;30.50;58.90;;;;;;1833404;76;20209;-72
2023/03/09 08:22:54;;;;;;;;;;;30.50;59.30;;;;;;1868349;76;20148;-73
2023/03/09 08:25:28;;;;;;;;;;;30.50;59.30;;;;;;1851035;75;20588;-72
2023/03/09 08:27:58;;;;;;;;;;;30.50;59.20;;;;;;1849461;78;20252;-72
2023/03/09 08:30:30;;;;;;;;;;;30.50;59.20;;;;;;1851121;76;20146;-72
2023/03/09 08:33:02;;;;;;;;;;;30.50;58.00;;;;;;1852638;75;20201;-73
2023/03/09 08:35:35;;;;;;;;;;;30.50;58.50;;;;;;1818241;78;20252;-70
2023/03/09 08:38:05;;;;;;;;;;;30.50;58.80;;;;;;1812716;77;20289;-73
2023/03/09 08:40:35;;;;;;;;;;;30.50;59.20;;;;;;1828587;78;20194;-73
2023/03/09 08:43:06;;;;;;;;;;;30.50;58.70;;;;;;1805863;78;20129;-71
2023/03/09 08:45:37;;;;;;;;;;;30.50;58.50;;;;;;1834085;77;20402;-72
2023/03/09 08:50:59;;;;;;;;;;;30.50;59.40;;;;;;1807936;78;20173;-71
2023/03/09 08:53:30;;;;;;;;;;;30.50;58.90;;;;;;1809687;78;20192;-72
2023/03/09 08:56:04;;;;;;;;;;;30.50;59.50;;;;;;1814960;78;20168;-71
2023/03/09 08:58:37;;;;;;;;;;;30.40;59.20;;;;;;1813109;78;20502;-72
2023/03/09 09:01:08;;;;;;;;;;;30.50;59.00;;;;;;1823467;78;20211;-72
2023/03/09 09:03:38;;;;;;;;;;;30.40;59.40;;;;;;1808199;78;20633;-72
2023/03/09 09:06:10;;;;;;;;;;;30.40;58.50;;;;;;1820367;78;20386;-72
2023/03/09 09:08:44;;;;;;;;;;;30.50;59.30;;;;;;1806429;78;20296;-73
2023/03/09 09:11:15;;;;;;;;;;;30.40;58.40;;;;;;1805277;78;20196;-72
2023/03/09 09:13:45;;;;;;;;;;;30.40;58.30;;;;;;1805515;78;20264;-74
2023/03/09 09:16:15;;;;;;;;;;;30.40;58.70;;;;;;1806885;78;20262;-72
2023/03/09 09:18:46;;;;;;;;;;;30.40;59.30;;;;;;1806910;78;20834;-71
2023/03/09 09:21:17;;;;;;;;;;;30.40;59.20;;;;;;1802965;78;20248;-70
2023/03/09 09:23:47;;;;;;;;;;;30.40;59.50;;;;;;1805035;78;20256;-71
2023/03/09 09:26:18;;;;;;;;;;;30.40;59.50;;;;;;1807217;78;20248;-70
2023/03/09 09:28:46;;;;;;;;;;;30.30;59.50;;;;;;1803473;78;20188;-70
2023/03/09 09:31:20;;;;;;;;;;;30.30;59.10;;;;;;1808338;78;20229;-71
2023/03/09 09:33:50;;;;;;;;;;;30.30;58.90;;;;;;1814819;78;20179;-72
2023/03/09 09:36:20;;;;;;;;;;;30.30;60.70;;;;;;1806564;78;20142;-72
2023/03/09 09:38:50;;;;;;;;;;;30.40;59.20;;;;;;1743421;81;20707;-72
2023/03/09 09:41:21;;;;;;;;;;;30.30;59.30;;;;;;1773605;79;20303;-73
2023/03/09 09:43:53;;;;;;;;;;;30.30;59.00;;;;;;1735589;81;20326;-72
2023/03/09 09:46:24;;;;;;;;;;;30.20;59.80;;;;;;1778884;79;20594;-72
2023/03/09 09:48:54;;;;;;;;;;;30.20;59.70;;;;;;1754134;80;20286;-71
2023/03/09 09:51:25;;;;;;;;;;;30.20;59.50;;;;;;1734289;81;20516;-71
2023/03/09 09:54:02;;;;;;;;;;;30.20;59.80;;;;;;1757031;80;20698;-72
2023/03/09 09:56:38;;;;;;;;;;;30.20;59.30;;;;;;1764268;80;20301;-72
2023/03/09 09:59:09;;;;;;;;;;;30.20;59.30;;;;;;1752218;80;20335;-71
2023/03/09 10:01:47;;;;;;;;;;;30.20;59.50;;;;;;1759069;80;20244;-71
2023/03/09 10:04:22;;;;;;;;;;;30.20;59.50;;;;;;1755432;80;20180;-71
2023/03/09 10:06:52;;;;;;;;;;;30.10;59.30;;;;;;1757379;80;20227;-72
2023/03/09 10:09:24;;;;;;;;;;;30.10;59.80;;;;;;1763075;80;20269;-73
2023/03/09 10:11:55;;;;;;;;;;;30.10;59.80;;;;;;1760593;80;20207;-71
2023/03/09 10:14:32;;;;;;;;;;;30.10;59.90;;;;;;1723691;82;20633;-72
2023/03/09 10:17:16;;;;;;;;;;;30.00;59.60;;;;;;1761287;80;20267;-71
2023/03/09 10:19:47;;;;;;;;;;;30.10;59.60;;;;;;1734871;81;20563;-72
2023/03/09 10:22:19;;;;;;;;;;;30.00;59.60;;;;;;1737970;81;20233;-72
2023/03/09 10:24:53;;;;;;;;;;;29.90;59.50;;;;;;1729237;81;20338;-72
2023/03/09 10:27:27;;;;;;;;;;;30.00;59.70;;;;;;1759596;80;20218;-72
2023/03/09 10:29:59;;;;;;;;;;;29.90;59.80;;;;;;1759005;80;20328;-72
2023/03/09 10:32:34;;;;;;;;;;;29.90;59.70;;;;;;1750362;80;20169;-73
2023/03/09 10:35:09;;;;;;;;;;;29.90;60.40;;;;;;1761335;80;20230;-72
2023/03/09 10:37:43;;;;;;;;;;;29.90;60.20;;;;;;1682335;83;20255;-73
2023/03/09 10:40:48;;;;;;;;;;;29.80;59.80;;;;;;1733408;81;20201;-73
2023/03/09 10:43:28;;;;;;;;;;;29.90;60.10;;;;;;1757064;80;20193;-72
2023/03/09 10:46:11;;;;;;;;;;;29.80;60.30;;;;;;1761083;80;20185;-72
2023/03/09 10:48:45;;;;;;;;;;;29.80;60.20;;;;;;1782584;80;20231;-82
2023/03/09 10:51:19;;;;;;;;;;;29.80;59.90;;;;;;1767066;80;20173;-81
2023/03/09 10:53:49;;;;;;;;;;;29.80;60.60;;;;;;1731432;81;20207;-83
2023/03/09 10:56:20;;;;;;;;;;;29.80;60.00;;;;;;1733250;80;20281;-81
2023/03/09 10:59:09;;;;;;;;;;;29.70;60.00;;;;;;1790018;80;20187;-82
2023/03/09 11:01:40;;;;;;;;;;;29.70;59.60;;;;;;1768027;80;20226;-83
2023/03/09 11:04:26;;;;;;;;;;;29.70;59.80;;;;;;1741460;81;20141;-83
2023/03/09 11:06:57;;;;;;;;;;;29.60;59.70;;;;;;1758945;81;20185;-83
2023/03/09 11:09:44;;;;;;;;;;;29.60;59.90;;;;;;1801546;79;20224;-82
2023/03/09 11:12:33;;;;;;;;;;;29.60;60.30;;;;;;1786686;79;20191;-83
2023/03/09 11:15:05;;;;;;;;;;;29.60;60.60;;;;;;1781838;81;20157;-82
2023/03/09 11:17:56;;;;;;;;;;;29.50;60.20;;;;;;1755872;81;20155;-83
2023/03/09 11:20:36;;;;;;;;;;;29.50;60.30;;;;;;1759549;79;20202;-84
2023/03/09 11:23:19;;;;;;;;;;;29.40;60.30;;;;;;1784477;79;20161;-83
2023/03/09 11:25:50;;;;;;;;;;;29.40;60.50;;;;;;1751851;81;20163;-83
2023/03/09 11:28:21;;;;;;;;;;;29.40;60.20;;;;;;1771573;79;20220;-84
2023/03/09 11:30:52;;;;;;;;;;;29.40;60.50;;;;;;1788759;80;20186;-82
2023/03/09 11:33:23;;;;;;;;;;;29.40;60.70;;;;;;1783014;79;20231;-82
2023/03/09 11:35:54;;;;;;;;;;;29.30;60.50;;;;;;1773326;79;20234;-85
2023/03/09 11:38:26;;;;;;;;;;;29.30;60.70;;;;;;1750146;82;20198;-82
2023/03/09 11:41:03;;;;;;;;;;;29.30;60.80;;;;;;1775585;79;20266;-83
2023/03/09 11:43:34;;;;;;;;;;;29.30;61.00;;;;;;1744557;82;20235;-84
2023/03/09 11:46:05;;;;;;;;;;;29.20;61.20;;;;;;1776765;81;20227;-83
2023/03/09 11:51:33;;;;;;;;;;;29.20;61.30;;;;;;1756475;81;20189;-81
2023/03/09 11:54:11;;;;;;;;;;;29.20;61.40;;;;;;1749417;82;20346;-83
2023/03/09 11:56:42;;;;;;;;;;;29.10;61.50;;;;;;1779153;81;20239;-82
2023/03/09 11:59:26;;;;;;;;;;;29.10;62.60;;;;;;1748893;82;20231;-83
2023/03/09 12:01:57;;;;;;;;;;;29.10;61.80;;;;;;1752269;82;20214;-83
2023/03/09 12:04:27;;;;;;;;;;;29.10;62.00;;;;;;1719535;82;20261;-83
2023/03/09 12:07:04;;;;;;;;;;;29.10;62.30;;;;;;1752620;81;20270;-84
2023/03/09 12:09:38;;;;;;;;;;;29.10;62.30;;;;;;1751101;81;20423;-82
2023/03/09 12:12:18;;;;;;;;;;;29.10;62.50;;;;;;1754561;81;20143;-82
2023/03/09 12:14:51;;;;;;;;;;;29.10;62.80;;;;;;1782430;81;20189;-83
2023/03/09 12:17:24;;;;;;;;;;;29.10;62.70;;;;;;1749523;82;20210;-83
2023/03/09 12:19:57;;;;;;;;;;;29.00;62.60;;;;;;1752843;79;20208;-83
2023/03/09 12:22:28;;;;;;;;;;;29.10;62.80;;;;;;1751426;81;20176;-83
2023/03/09 12:24:59;;;;;;;;;;;29.00;62.80;;;;;;1779556;80;20212;-83
2023/03/09 12:27:32;;;;;;;;;;;29.00;62.90;;;;;;1748240;81;20293;-82
2023/03/09 12:30:12;;;;;;;;;;;29.00;63.00;;;;;;1746203;80;20189;-83
2023/03/09 12:32:43;;;;;;;;;;;29.00;63.00;;;;;;1744811;80;20240;-83
2023/03/09 12:35:15;;;;;;;;;;;29.00;63.20;;;;;;1741925;80;20418;-84
2023/03/09 12:37:49;;;;;;;;;;;29.00;63.20;;;;;;1764874;80;20254;-82
2023/03/09 12:40:25;;;;;;;;;;;28.90;63.30;;;;;;1762196;81;20210;-81
2023/03/09 12:42:53;;;;;;;;;;;28.90;63.20;;;;;;1759830;80;20610;-82
2023/03/09 12:45:27;;;;;;;;;;;28.90;63.40;;;;;;1769962;80;20232;-83
2023/03/09 12:48:13;;;;;;;;;;;28.90;63.40;;;;;;1729774;82;20226;-84
2023/03/09 12:50:47;;;;;;;;;;;28.90;63.50;;;;;;1745263;82;20255;-84
2023/03/09 12:53:20;;;;;;;;;;;28.90;63.50;;;;;;1715911;83;20206;-83
2023/03/09 12:55:53;;;;;;;;;;;28.80;63.40;;;;;;1755828;80;20622;-83
2023/03/09 12:58:27;;;;;;;;;;;28.90;63.40;;;;;;1756637;80;20524;-84
2023/03/09 13:00:58;;;;;;;;;;;28.80;63.50;;;;;;1771304;79;20140;-83
2023/03/09 13:03:31;;;;;;;;;;;28.90;63.60;;;;;;1778066;81;20440;-82
2023/03/09 13:06:10;;;;;;;;;;;28.80;63.40;;;;;;1762262;79;20182;-83
2023/03/09 13:08:42;;;;;;;;;;;28.80;63.50;;;;;;1728062;79;20232;-81
2023/03/09 13:11:18;;;;;;;;;;;28.80;63.70;;;;;;1755293;81;20355;-83
2023/03/09 13:13:52;;;;;;;;;;;28.80;63.80;;;;;;1738881;80;20318;-83
2023/03/09 13:16:29;;;;;;;;;;;28.80;63.80;;;;;;1757007;79;20126;-83
2023/03/09 13:19:19;;;;;;;;;;;28.80;63.90;;;;;;1748828;81;20261;-82
2023/03/09 13:22:03;;;;;;;;;;;28.80;63.90;;;;;;1783764;78;20207;-82
2023/03/09 13:24:39;;;;;;;;;;;28.70;64.00;;;;;;1747868;82;20307;-81
2023/03/09 13:27:16;;;;;;;;;;;28.70;64.10;;;;;;1749171;81;20233;-82
2023/03/09 13:29:52;;;;;;;;;;;28.70;64.20;;;;;;1747383;82;20130;-81
2023/03/09 13:32:33;;;;;;;;;;;28.60;64.20;;;;;;1751632;80;20319;-82
2023/03/09 13:35:07;;;;;;;;;;;28.60;64.20;;;;;;1753276;80;20182;-83
2023/03/09 13:37:38;;;;;;;;;;;28.60;64.40;;;;;;1758172;80;20448;-82
2023/03/09 13:40:10;;;;;;;;;;;28.60;64.40;;;;;;1756081;80;20287;-83
2023/03/09 13:42:40;;;;;;;;;;;28.60;64.50;;;;;;1732425;80;20168;-83
2023/03/09 13:45:14;;;;;;;;;;;28.60;64.60;;;;;;1777496;80;20379;-82
2023/03/09 13:47:59;;;;;;;;;;;28.60;64.70;;;;;;1748662;81;20182;-81
2023/03/09 13:50:32;;;;;;;;;;;28.60;64.80;;;;;;1723738;83;20126;-82
2023/03/09 13:53:06;;;;;;;;;;;28.60;64.80;;;;;;1747160;82;20218;-83
2023/03/09 13:55:36;;;;;;;;;;;28.50;64.80;;;;;;1774388;79;20272;-83
2023/03/09 13:58:16;;;;;;;;;;;28.50;64.90;;;;;;1755324;80;20262;-84
2023/03/09 14:00:57;;;;;;;;;;;28.50;65.10;;;;;;1752039;80;21093;-83
2023/03/09 14:03:40;;;;;;;;;;;28.50;65.00;;;;;;1779544;80;20124;-83
2023/03/09 14:06:14;;;;;;;;;;;28.50;65.10;;;;;;1783443;80;20449;-82
2023/03/09 14:08:49;;;;;;;;;;;28.40;66.00;;;;;;1772970;80;20163;-83
2023/03/09 14:11:25;;;;;;;;;;;28.40;65.00;;;;;;1753244;79;20212;-83
2023/03/09 14:13:59;;;;;;;;;;;28.40;64.90;;;;;;1753075;80;20247;-83
2023/03/09 14:16:27;;;;;;;;;;;28.40;64.90;;;;;;1776908;81;20458;-82
2023/03/09 14:19:01;;;;;;;;;;;28.40;64.80;;;;;;1765817;80;20237;-83
2023/03/09 14:21:39;;;;;;;;;;;28.40;64.80;;;;;;1752280;82;20138;-82
2023/03/09 14:24:19;;;;;;;;;;;28.40;64.80;;;;;;1740955;82;20214;-83
2023/03/09 14:26:52;;;;;;;;;;;28.40;64.80;;;;;;1724926;82;20557;-84
2023/03/09 14:29:30;;;;;;;;;;;28.40;64.80;;;;;;1764564;81;20541;-82
2023/03/09 14:32:18;;;;;;;;;;;28.40;64.80;;;;;;1805112;79;20258;-82
2023/03/09 14:34:49;;;;;;;;;;;28.40;64.70;;;;;;1788687;79;20231;-82
2023/03/09 14:37:24;;;;;;;;;;;28.40;64.80;;;;;;1764021;81;20645;-82
2023/03/09 14:39:55;;;;;;;;;;;28.40;65.00;;;;;;1734543;80;20203;-81
2023/03/09 14:42:28;;;;;;;;;;;28.40;65.10;;;;;;1740314;81;20229;-82
2023/03/09 14:45:08;;;;;;;;;;;28.30;65.10;;;;;;1755307;81;20179;-83
2023/03/09 14:47:36;;;;;;;;;;;28.30;65.20;;;;;;1747661;81;20462;-82
2023/03/09 14:50:12;;;;;;;;;;;28.30;65.30;;;;;;1757129;80;20271;-82
2023/03/09 14:55:46;;;;;;;;;;;28.30;65.30;;;;;;1747568;80;20210;-83
2023/03/09 14:58:11;;;;;;;;;;;28.30;66.00;;;;;;1755870;80;20206;-84
2023/03/09 15:00:43;;;;;;;;;;;28.30;65.50;;;;;;1756657;81;20454;-82
2023/03/09 15:03:13;;;;;;;;;;;28.20;65.60;;;;;;1756751;82;20568;-82
2023/03/09 15:05:46;;;;;;;;;;;28.20;65.70;;;;;;1757662;80;20474;-82
2023/03/09 15:08:16;;;;;;;;;;;28.20;65.90;;;;;;1757039;80;20202;-83
2023/03/09 15:10:46;;;;;;;;;;;28.20;66.00;;;;;;1757731;80;20179;-83
2023/03/09 15:13:24;;;;;;;;;;;28.20;66.00;;;;;;1755590;82;20186;-83
2023/03/09 15:15:55;;;;;;;;;;;28.10;66.00;;;;;;1755865;81;20213;-84
2023/03/09 15:18:32;;;;;;;;;;;28.10;66.10;;;;;;1734499;81;20221;-83
2023/03/09 15:21:02;;;;;;;;;;;28.10;66.20;;;;;;1772131;79;20273;-83